createdAt,value
2023-08-15T00:11:39.201Z,24.5
2023-08-15T00:41:39.198Z,24.5
2023-08-15T01:11:39.214Z,24.5
2023-08-15T01:41:39.195Z,24.5
2023-08-15T02:11:39.262Z,24.4
2023-08-15T02:41:39.189Z,24.4
2023-08-15T03:11:39.202Z,24.4
2023-08-15T03:41:39.194Z,24.4
2023-08-15T04:11:39.179Z,24.4
2023-08-15T04:41:39.177Z,24.3
2023-08-15T05:11:39.198Z,24.3
2023-08-15T05:41:39.223Z,24.3
2023-08-15T06:11:39.176Z,24.3
2023-08-15T06:41:39.199Z,24.3
2023-08-15T07:11:39.250Z,24.5
2023-08-15T07:41:39.539Z,24.5
2023-08-15T08:11:39.352Z,24.5
2023-08-15T08:41:39.351Z,24.6
2023-08-15T09:11:39.377Z,24.8
2023-08-15T09:41:39.143Z,24.8
2023-08-15T10:11:39.186Z,24.8
2023-08-15T10:41:39.330Z,25.0
2023-08-15T11:11:39.356Z,25.0
2023-08-15T11:41:39.329Z,25.0
2023-08-15T12:11:39.294Z,25.0
2023-08-15T12:41:39.254Z,25.0
2023-08-15T13:11:39.121Z,25.0
2023-08-15T13:41:39.312Z,25.1
2023-08-15T14:11:39.109Z,25.1
2023-08-15T14:41:39.312Z,25.2
2023-08-15T15:11:39.406Z,25.2
2023-08-15T15:41:39.198Z,25.1
2023-08-15T16:11:39.202Z,25.1
2023-08-15T16:41:39.131Z,25.1
2023-08-15T17:11:39.258Z,25.1
2023-08-15T17:41:39.081Z,25.0
2023-08-15T18:11:39.055Z,25.0
2023-08-15T18:41:39.168Z,25.0
2023-08-15T19:11:39.077Z,25.0
2023-08-15T19:41:39.418Z,24.9
2023-08-15T20:11:39.292Z,24.8
2023-08-15T20:41:38.646Z,24.8
2023-08-15T21:11:39.254Z,24.8
2023-08-15T21:41:39.192Z,24.8
2023-08-15T22:11:39.053Z,24.8
2023-08-15T22:41:39.201Z,24.7
2023-08-15T23:41:39.045Z,24.6
